createdAt,value
2018-04-12T00:00:37.004Z,81.83
2018-04-12T00:03:07.100Z,90.20
2018-04-12T00:05:35.224Z,87.23
2018-04-12T00:08:03.303Z,90.57
2018-04-12T00:10:32.031Z,86.97
2018-04-12T00:13:00.248Z,90.80
2018-04-12T00:15:28.392Z,89.60
2018-04-12T00:17:56.493Z,85.77
2018-04-12T00:20:24.651Z,86.40
2018-04-12T00:22:52.751Z,83.50
2018-04-12T00:25:20.848Z,89.00
2018-04-12T00:27:49.616Z,86.00
2018-04-12T00:30:17.947Z,85.53
2018-04-12T00:32:46.627Z,90.40
2018-04-12T00:35:14.715Z,85.30
2018-04-12T00:37:42.803Z,82.73
2018-04-12T00:40:11.701Z,89.30
2018-04-12T00:42:39.811Z,91.67
2018-04-12T00:45:07.908Z,87.43
2018-04-12T00:47:36.327Z,91.67
2018-04-12T00:50:04.651Z,91.07
2018-04-12T00:52:37.681Z,88.33
2018-04-12T00:55:05.797Z,98.73
2018-04-12T00:57:35.679Z,90.00
2018-04-12T01:00:03.799Z,91.60
2018-04-12T01:02:32.327Z,92.33
2018-04-12T01:05:00.433Z,100.30
2018-04-12T01:07:29.311Z,88.13
2018-04-12T01:09:58.281Z,82.23
2018-04-12T01:12:27.298Z,88.00
2018-04-12T01:14:57.120Z,78.83
2018-04-12T01:17:25.940Z,74.03
2018-04-12T01:19:54.931Z,73.63
2018-04-12T01:22:23.823Z,73.57
2018-04-12T01:24:51.913Z,73.50
2018-04-12T01:27:20.220Z,70.80
2018-04-12T01:29:48.303Z,71.80
2018-04-12T01:32:16.430Z,71.33
2018-04-12T01:34:44.534Z,64.50
2018-04-12T01:37:12.697Z,72.47
2018-04-12T01:39:41.470Z,71.00
2018-04-12T01:42:09.554Z,70.27
2018-04-12T01:44:38.512Z,69.17
2018-04-12T01:47:07.396Z,65.53
2018-04-12T01:49:35.642Z,65.87
2018-04-12T01:52:04.132Z,67.03
2018-04-12T01:54:32.246Z,63.47
2018-04-12T01:57:01.482Z,64.93
2018-04-12T01:59:29.697Z,68.13
2018-04-12T02:01:58.054Z,63.93
2018-04-12T02:04:26.266Z,68.40
2018-04-12T02:06:54.866Z,63.77
2018-04-12T02:09:22.992Z,68.53
2018-04-12T02:11:51.146Z,68.27
2018-04-12T02:14:19.243Z,66.57
2018-04-12T02:16:47.461Z,67.30
2018-04-12T02:19:16.776Z,66.07
2018-04-12T02:21:44.879Z,63.73
2018-04-12T02:24:12.996Z,66.03
2018-04-12T02:26:41.111Z,57.17
2018-04-12T02:29:09.195Z,68.43
2018-04-12T02:31:37.319Z,66.07
2018-04-12T02:34:05.415Z,61.43
2018-04-12T02:36:39.303Z,65.00
2018-04-12T02:39:07.386Z,60.43
2018-04-12T02:41:35.503Z,60.97
2018-04-12T02:44:03.651Z,59.27
2018-04-12T02:46:32.459Z,67.97
2018-04-12T02:49:00.567Z,59.13
2018-04-12T02:51:28.739Z,61.33
2018-04-12T02:53:56.854Z,58.73
2018-04-12T02:56:24.912Z,58.13
2018-04-12T02:58:53.895Z,62.93
2018-04-12T03:01:21.982Z,61.60
2018-04-12T03:03:50.414Z,62.17
2018-04-12T03:16:04.420Z,57.30
2018-04-12T03:18:32.560Z,64.47
2018-04-12T03:21:02.679Z,59.43
2018-04-12T03:23:30.774Z,60.10
2018-04-12T03:25:58.881Z,60.47
2018-04-12T03:41:28.067Z,60.33
2018-04-12T03:43:58.007Z,56.50
2018-04-12T03:46:27.330Z,59.00
2018-04-12T03:48:55.423Z,62.23
2018-04-12T03:51:23.775Z,57.40
2018-04-12T03:53:51.847Z,57.73
2018-04-12T03:56:19.955Z,55.10
2018-04-12T03:58:48.861Z,55.70
2018-04-12T04:01:16.967Z,59.97
2018-04-12T04:03:45.052Z,58.80
2018-04-12T04:06:13.157Z,52.50
2018-04-12T04:08:41.534Z,59.60
2018-04-12T04:11:09.612Z,53.63
2018-04-12T04:13:38.341Z,56.37
2018-04-12T04:16:19.320Z,54.73
2018-04-12T04:18:59.125Z,61.97
2018-04-12T04:21:27.226Z,54.53
2018-04-12T04:23:56.949Z,54.20
2018-04-12T04:26:25.380Z,55.23
2018-04-12T04:28:53.444Z,51.80
2018-04-12T04:31:21.554Z,56.17
2018-04-12T04:33:51.378Z,54.47
2018-04-12T04:38:51.476Z,55.27
2018-04-12T04:41:20.303Z,52.77
2018-04-12T04:43:48.534Z,55.57
2018-04-12T04:46:16.626Z,59.87
2018-04-12T04:48:45.061Z,54.20
2018-04-12T04:51:13.430Z,52.10
2018-04-12T04:53:41.532Z,57.10
2018-04-12T04:56:09.635Z,51.37
2018-04-12T04:58:37.752Z,56.77
2018-04-12T05:01:05.843Z,55.23
2018-04-12T05:03:33.990Z,52.70
2018-04-12T05:06:03.310Z,58.90
2018-04-12T05:08:31.754Z,60.40
2018-04-12T05:11:00.719Z,58.10
2018-04-12T05:13:29.132Z,57.80
2018-04-12T05:15:57.318Z,57.63
2018-04-12T05:18:26.503Z,56.40
2018-04-12T05:20:54.556Z,60.37
2018-04-12T05:23:22.679Z,68.87
2018-04-12T05:25:50.835Z,60.27
2018-04-12T05:41:18.955Z,64.07
2018-04-12T05:43:47.405Z,60.55
2018-04-12T05:46:15.512Z,55.72
2018-04-12T05:48:43.895Z,64.60
2018-04-12T05:51:12.516Z,55.60
2018-04-12T05:53:41.467Z,59.55
2018-04-12T05:56:09.579Z,58.53
2018-04-12T05:58:37.911Z,61.92
2018-04-12T06:01:07.647Z,56.50
2018-04-12T06:03:35.742Z,60.20
2018-04-12T06:06:03.855Z,59.10
2018-04-12T06:08:32.819Z,55.07
2018-04-12T06:11:00.992Z,60.40
2018-04-12T06:13:29.731Z,57.10
2018-04-12T06:28:57.862Z,57.88
2018-04-12T06:31:26.958Z,56.78
2018-04-12T06:33:55.100Z,60.12
2018-04-12T06:36:23.247Z,58.87
2018-04-12T06:38:51.615Z,56.88
2018-04-12T06:41:19.744Z,59.65
2018-04-12T06:43:48.134Z,48.78
2018-04-12T06:46:16.259Z,54.03
2018-04-12T06:48:44.400Z,54.80
2018-04-12T07:04:12.528Z,59.75
2018-04-12T07:06:45.957Z,57.35
2018-04-12T07:09:14.089Z,56.37
2018-04-12T07:11:42.196Z,59.25
2018-04-12T07:14:10.321Z,59.83
2018-04-12T07:16:38.444Z,58.38
2018-04-12T07:19:06.546Z,61.00
2018-04-12T07:21:34.640Z,56.60
2018-04-12T07:24:02.759Z,61.58
2018-04-12T07:29:01.715Z,59.77
2018-04-12T07:31:29.844Z,64.30
2018-04-12T07:33:57.939Z,62.10
2018-04-12T07:36:27.030Z,61.10
2018-04-12T07:38:55.128Z,56.40
2018-04-12T07:41:23.221Z,56.83
2018-04-12T07:43:51.356Z,68.17
2018-04-12T07:46:19.429Z,61.57
2018-04-12T07:48:47.564Z,54.93
2018-04-12T07:51:15.684Z,61.57
2018-04-12T07:53:44.114Z,61.57
2018-04-12T07:56:13.338Z,63.40
2018-04-12T07:58:41.758Z,59.43
2018-04-12T08:01:09.866Z,71.77
2018-04-12T08:03:38.413Z,62.67
2018-04-12T08:06:06.505Z,61.60
2018-04-12T08:08:34.609Z,65.30
2018-04-12T08:11:03.082Z,63.17
2018-04-12T08:13:31.173Z,57.37
2018-04-12T08:15:59.259Z,61.37
2018-04-12T08:18:27.369Z,60.17
2018-04-12T08:20:55.465Z,61.13
2018-04-12T08:23:23.563Z,57.07
2018-04-12T08:25:51.667Z,63.63
2018-04-12T08:28:20.091Z,54.60
2018-04-12T08:30:48.215Z,66.20
2018-04-12T08:33:16.323Z,62.00
2018-04-12T08:35:44.425Z,64.30
2018-04-12T08:38:12.539Z,65.68
2018-04-12T08:40:40.717Z,66.55
2018-04-12T08:43:08.829Z,64.70
2018-04-12T08:45:36.923Z,63.40
2018-04-12T08:48:05.015Z,62.50
2018-04-12T08:50:33.158Z,63.57
2018-04-12T08:53:01.269Z,65.23
2018-04-12T08:55:29.367Z,66.80
2018-04-12T08:57:58.214Z,58.93
2018-04-12T09:00:26.330Z,54.53
2018-04-12T09:02:54.412Z,65.40
2018-04-12T09:05:22.538Z,61.33
2018-04-12T09:07:50.620Z,64.07
2018-04-12T09:10:18.742Z,65.07
2018-04-12T09:12:46.862Z,65.10
2018-04-12T09:15:15.905Z,65.83
2018-04-12T09:17:44.053Z,68.70
2018-04-12T09:20:12.266Z,62.10
2018-04-12T09:22:41.110Z,68.83
2018-04-12T09:25:09.236Z,64.70
2018-04-12T09:27:37.326Z,71.10
2018-04-12T09:30:06.420Z,68.73
2018-04-12T09:32:35.453Z,67.50
2018-04-12T09:35:03.577Z,68.07
2018-04-12T09:37:32.594Z,64.30
2018-04-12T09:40:00.712Z,63.93
2018-04-12T09:42:29.540Z,64.60
2018-04-12T09:44:57.633Z,63.20
2018-04-12T09:47:25.728Z,59.57
2018-04-12T09:49:54.074Z,65.37
2018-04-12T09:52:22.167Z,67.23
2018-04-12T09:54:51.159Z,68.07
2018-04-12T09:57:19.574Z,70.07
2018-04-12T09:59:47.695Z,76.17
2018-04-12T10:15:15.801Z,71.80
2018-04-12T10:17:44.200Z,76.00
2018-04-12T10:20:12.279Z,72.20
2018-04-12T10:22:40.399Z,75.53
2018-04-12T10:25:08.515Z,71.93
2018-04-12T10:27:36.618Z,75.83
2018-04-12T10:30:04.690Z,72.20
2018-04-12T10:32:32.854Z,74.97
2018-04-12T10:35:00.950Z,72.60
2018-04-12T10:37:29.045Z,70.23
2018-04-12T10:39:57.891Z,73.10
2018-04-12T10:42:27.333Z,68.73
2018-04-12T10:44:55.440Z,73.30
2018-04-12T10:47:23.800Z,73.63
2018-04-12T10:49:51.887Z,75.10
2018-04-12T10:52:20.970Z,76.53
2018-04-12T10:54:49.087Z,65.97
2018-04-12T10:57:18.193Z,70.07
2018-04-12T10:59:46.308Z,67.30
2018-04-12T11:02:14.666Z,64.97
2018-04-12T11:04:42.760Z,76.23
2018-04-12T11:07:11.513Z,74.40
2018-04-12T11:09:39.623Z,72.40
2018-04-12T11:12:07.745Z,70.77
2018-04-12T11:14:35.836Z,71.30
2018-04-12T11:17:03.956Z,69.93
2018-04-12T11:19:32.860Z,68.67
2018-04-12T11:22:01.904Z,70.73
2018-04-12T11:24:30.095Z,69.67
2018-04-12T11:26:58.486Z,71.47
2018-04-12T11:29:27.170Z,70.53
2018-04-12T11:31:55.260Z,73.07
2018-04-12T11:34:23.389Z,69.87
2018-04-12T11:36:52.254Z,71.63
2018-04-12T11:39:20.351Z,63.27
2018-04-12T11:41:49.218Z,68.10
2018-04-12T11:44:17.347Z,68.47
2018-04-12T11:46:45.493Z,66.50
2018-04-12T11:49:14.168Z,71.43
2018-04-12T11:51:42.397Z,68.83
2018-04-12T11:54:10.497Z,69.00
2018-04-12T11:56:38.610Z,66.63
2018-04-12T11:59:07.188Z,73.00
2018-04-12T12:01:35.361Z,66.83
2018-04-12T12:04:03.548Z,73.77
2018-04-12T12:06:31.655Z,70.00
2018-04-12T12:08:59.787Z,67.73
2018-04-12T12:11:27.883Z,69.90
2018-04-12T12:13:56.029Z,70.17
2018-04-12T12:16:24.187Z,67.33
2018-04-12T12:18:52.290Z,69.07
2018-04-12T12:21:20.390Z,69.57
2018-04-12T12:23:48.626Z,69.10
2018-04-12T12:26:16.649Z,68.40
2018-04-12T12:28:44.803Z,69.70
2018-04-12T12:31:12.944Z,71.37
2018-04-12T12:33:41.439Z,71.17
2018-04-12T12:36:09.555Z,65.93
2018-04-12T12:38:38.451Z,69.93
2018-04-12T12:41:06.639Z,77.57
2018-04-12T12:43:34.784Z,76.33
2018-04-12T12:46:02.894Z,77.80
2018-04-12T12:48:31.579Z,78.10
2018-04-12T12:50:59.704Z,78.93
2018-04-12T12:53:28.410Z,85.50
2018-04-12T12:55:56.522Z,77.57
2018-04-12T12:58:25.947Z,78.57
2018-04-12T13:00:54.047Z,81.30
2018-04-12T13:03:22.151Z,86.93
2018-04-12T13:05:50.273Z,87.83
2018-04-12T13:08:18.369Z,82.13
2018-04-12T13:10:47.470Z,86.07
2018-04-12T13:13:15.589Z,87.23
2018-04-12T13:28:43.726Z,85.37
2018-04-12T13:31:11.840Z,92.80
2018-04-12T13:33:40.549Z,90.03
2018-04-12T13:36:08.639Z,98.60
2018-04-12T13:38:36.760Z,87.57
2018-04-12T13:41:04.954Z,88.57
2018-04-12T13:43:33.044Z,90.50
2018-04-12T13:46:01.509Z,91.47
2018-04-12T13:48:29.605Z,87.13
2018-04-12T13:50:57.701Z,89.40
2018-04-12T13:53:26.399Z,80.97
2018-04-12T13:55:54.524Z,87.57
2018-04-12T13:58:23.182Z,84.10
2018-04-12T14:00:52.164Z,84.30
2018-04-12T14:03:20.268Z,81.57
2018-04-12T14:05:50.112Z,90.47
2018-04-12T14:08:18.596Z,82.83
2018-04-12T14:10:47.020Z,86.93
2018-04-12T14:13:15.094Z,87.77
2018-04-12T14:15:43.872Z,91.77
2018-04-12T14:18:11.963Z,89.77
2018-04-12T14:20:40.570Z,102.73
2018-04-12T14:23:08.647Z,90.07
2018-04-12T14:25:36.741Z,95.30
2018-04-12T14:28:04.864Z,91.70
2018-04-12T14:30:33.973Z,97.60
2018-04-12T14:33:02.098Z,91.23
2018-04-12T14:35:30.172Z,97.63
2018-04-12T14:37:58.375Z,96.03
2018-04-12T14:40:26.474Z,108.90
2018-04-12T14:42:54.572Z,97.17
2018-04-12T14:45:23.636Z,89.47
2018-04-12T14:47:51.734Z,97.53
2018-04-12T14:50:19.835Z,96.13
2018-04-12T14:52:47.983Z,97.17
2018-04-12T14:55:16.071Z,92.40
2018-04-12T14:57:44.168Z,91.03
2018-04-12T15:00:13.471Z,96.87
2018-04-12T15:02:41.588Z,87.43
2018-04-12T15:05:09.685Z,88.13
2018-04-12T15:07:37.790Z,85.90
2018-04-12T15:10:06.117Z,78.93
2018-04-12T15:25:34.256Z,75.67
2018-04-12T15:28:02.352Z,74.37
2018-04-12T15:30:30.499Z,80.37
2018-04-12T15:33:04.066Z,75.57
2018-04-12T15:35:37.753Z,74.60
2018-04-12T15:38:11.408Z,62.27
2018-04-12T15:40:44.896Z,67.70
2018-04-12T15:43:18.476Z,67.47
2018-04-12T15:45:52.526Z,66.23
2018-04-12T15:48:26.354Z,71.00
2018-04-12T15:51:00.069Z,65.30
2018-04-12T15:53:33.980Z,66.40
2018-04-12T15:56:07.583Z,63.77
2018-04-12T15:58:41.100Z,64.87
2018-04-12T16:01:14.795Z,65.07
2018-04-12T16:03:48.347Z,68.63
2018-04-12T16:16:07.611Z,58.87
2018-04-12T16:18:41.409Z,59.20
2018-04-12T16:21:15.924Z,61.77
2018-04-12T16:23:50.385Z,59.90
2018-04-12T16:26:24.171Z,61.23
2018-04-12T16:28:57.899Z,53.73
2018-04-12T16:31:32.212Z,60.33
2018-04-12T16:34:05.743Z,56.93
2018-04-12T16:36:40.142Z,59.40
2018-04-12T16:39:13.683Z,54.83
2018-04-12T16:41:48.176Z,55.80
2018-04-12T16:44:21.896Z,55.87
2018-04-12T16:46:55.463Z,54.03
2018-04-12T16:49:29.074Z,58.57
2018-04-12T16:52:02.679Z,58.60
2018-04-12T16:54:36.386Z,60.50
2018-04-12T16:57:09.999Z,50.90
2018-04-12T16:59:43.559Z,55.43
2018-04-12T17:02:18.038Z,58.57
2018-04-12T17:04:52.085Z,53.23
2018-04-12T17:07:25.826Z,51.20
2018-04-12T17:09:59.459Z,51.90
2018-04-12T17:12:33.421Z,53.47
2018-04-12T17:15:07.336Z,53.03
2018-04-12T17:17:40.927Z,48.97
2018-04-12T17:20:14.466Z,53.77
2018-04-12T17:22:48.320Z,52.53
2018-04-12T17:25:21.804Z,57.23
2018-04-12T17:27:55.464Z,50.93
2018-04-12T17:30:29.091Z,53.33
2018-04-12T17:33:02.736Z,53.60
2018-04-12T17:35:36.319Z,48.67
2018-04-12T17:38:10.281Z,54.63
2018-04-12T17:40:44.711Z,50.63
2018-04-12T17:43:18.845Z,50.77
2018-04-12T17:45:52.487Z,50.77
2018-04-12T17:48:25.961Z,56.80
2018-04-12T17:50:59.497Z,55.67
2018-04-12T17:53:33.235Z,54.17
2018-04-12T17:56:07.028Z,61.17
2018-04-12T17:58:40.975Z,52.90
2018-04-12T18:01:14.713Z,54.53
2018-04-12T18:03:48.322Z,59.50
2018-04-12T18:06:23.375Z,54.17
2018-04-12T18:08:57.435Z,52.00
2018-04-12T18:11:31.645Z,55.77
2018-04-12T18:14:05.575Z,57.87
2018-04-12T18:16:39.797Z,49.80
2018-04-12T18:19:13.381Z,52.50
2018-04-12T18:21:47.767Z,55.57
2018-04-12T18:24:22.496Z,53.87
2018-04-12T18:26:56.336Z,54.97
2018-04-12T18:29:29.839Z,45.57
2018-04-12T18:32:03.391Z,49.90
2018-04-12T18:34:37.004Z,51.50
2018-04-12T18:37:10.708Z,51.90
2018-04-12T18:39:45.295Z,55.90
2018-04-12T18:42:19.047Z,53.63
2018-04-12T18:44:52.676Z,56.37
2018-04-12T18:47:26.423Z,52.80
2018-04-12T18:50:00.004Z,56.47
2018-04-12T18:52:33.752Z,49.83
2018-04-12T18:55:07.610Z,51.87
2018-04-12T18:57:41.111Z,52.63
2018-04-12T19:00:14.675Z,50.27
2018-04-12T19:02:48.422Z,47.63
2018-04-12T19:05:21.986Z,49.83
2018-04-12T19:07:55.609Z,47.97
2018-04-12T19:10:29.911Z,52.33
2018-04-12T19:13:03.676Z,53.10
2018-04-12T19:15:37.383Z,53.13
2018-04-12T19:18:11.035Z,51.90
2018-04-12T19:20:44.788Z,54.73
2018-04-12T19:23:18.582Z,59.20
2018-04-12T19:25:52.197Z,54.77
2018-04-12T19:28:25.868Z,53.33
2018-04-12T19:30:59.731Z,54.33
2018-04-12T19:33:35.067Z,55.83
2018-04-12T19:36:08.582Z,55.77
2018-04-12T19:38:42.301Z,52.10
2018-04-12T19:41:15.958Z,52.57
2018-04-12T19:43:49.633Z,53.17
2018-04-12T19:46:23.204Z,55.13
2018-04-12T19:48:56.927Z,53.17
2018-04-12T19:51:30.475Z,48.70
2018-04-12T19:54:04.129Z,55.07
2018-04-12T19:56:37.675Z,57.23
2018-04-12T19:59:11.488Z,53.47
2018-04-12T20:01:45.102Z,52.00
2018-04-12T20:04:19.691Z,53.07
2018-04-12T20:06:53.471Z,55.47
2018-04-12T20:09:27.103Z,54.80
2018-04-12T20:12:00.649Z,56.97
2018-04-12T20:14:34.353Z,52.43
2018-04-12T20:17:09.742Z,54.70
2018-04-12T20:19:43.698Z,62.30
2018-04-12T20:22:17.333Z,53.00
2018-04-12T20:24:51.051Z,53.83
2018-04-12T20:27:24.575Z,55.50
2018-04-12T20:29:58.171Z,61.17
2018-04-12T20:32:31.754Z,58.90
2018-04-12T20:35:05.343Z,58.73
2018-04-12T20:37:38.884Z,54.30
2018-04-12T20:40:12.395Z,52.87
2018-04-12T20:42:46.444Z,57.60
2018-04-12T20:45:20.182Z,58.10
2018-04-12T20:47:53.886Z,58.40
2018-04-12T20:50:27.422Z,56.17
2018-04-12T20:53:02.171Z,53.27
2018-04-12T20:55:35.855Z,58.37
2018-04-12T20:58:09.398Z,58.73
2018-04-12T21:00:42.882Z,56.60
2018-04-12T21:03:16.432Z,57.03
2018-04-12T21:05:50.008Z,57.17
2018-04-12T21:08:23.585Z,55.83
2018-04-12T21:10:57.207Z,60.00
2018-04-12T21:13:30.858Z,55.53
2018-04-12T21:16:05.479Z,57.47
2018-04-12T21:18:40.240Z,60.93
2018-04-12T21:21:14.014Z,59.67
2018-04-12T21:23:48.331Z,57.50
2018-04-12T21:26:22.082Z,63.00
2018-04-12T21:28:55.828Z,61.30
2018-04-12T21:31:29.335Z,63.20
2018-04-12T21:34:02.935Z,63.10
2018-04-12T21:36:36.511Z,60.77
2018-04-12T21:39:10.247Z,64.53
2018-04-12T21:41:43.807Z,63.97
2018-04-12T21:44:17.428Z,66.50
2018-04-12T21:46:51.314Z,66.60
2018-04-12T21:49:24.974Z,66.40
2018-04-12T21:51:58.746Z,62.03
2018-04-12T21:54:32.657Z,63.70
2018-04-12T21:57:07.371Z,64.70
2018-04-12T21:59:40.982Z,70.50
2018-04-12T22:02:14.705Z,68.63
2018-04-12T22:04:48.494Z,63.87
2018-04-12T22:07:22.146Z,68.27
2018-04-12T22:09:55.978Z,67.83
2018-04-12T22:12:29.491Z,67.93
2018-04-12T22:15:03.115Z,66.83
2018-04-12T22:17:36.906Z,73.07
2018-04-12T22:20:10.598Z,71.40
2018-04-12T22:22:44.146Z,68.10
2018-04-12T22:25:17.837Z,72.80
2018-04-12T22:27:51.475Z,76.43
2018-04-12T22:30:25.092Z,74.63
2018-04-12T22:32:58.670Z,79.00
2018-04-12T22:35:32.366Z,76.20
2018-04-12T22:38:06.901Z,77.37
2018-04-12T22:40:40.423Z,77.20
2018-04-12T22:43:14.028Z,70.43
2018-04-12T22:45:48.763Z,75.97
2018-04-12T22:48:22.520Z,72.83
2018-04-12T22:50:59.010Z,75.20
2018-04-12T22:53:33.585Z,67.63
2018-04-12T22:56:07.825Z,73.97
2018-04-12T22:58:41.767Z,67.67
2018-04-12T23:01:16.269Z,73.70
2018-04-12T23:03:50.040Z,70.73
2018-04-12T23:06:23.775Z,77.17
2018-04-12T23:08:57.345Z,77.70
2018-04-12T23:11:31.095Z,71.57
2018-04-12T23:14:04.693Z,77.40
2018-04-12T23:16:38.338Z,81.53
2018-04-12T23:19:12.106Z,82.13
2018-04-12T23:21:45.892Z,88.97
2018-04-12T23:24:19.483Z,88.93
2018-04-12T23:26:53.261Z,94.60
2018-04-12T23:29:27.829Z,96.20
2018-04-12T23:32:01.495Z,101.60
2018-04-12T23:34:35.155Z,90.77
2018-04-12T23:37:08.721Z,97.50
2018-04-12T23:39:42.365Z,92.63
2018-04-12T23:42:16.885Z,92.67
2018-04-12T23:44:50.368Z,89.50
2018-04-12T23:47:24.954Z,86.60
2018-04-12T23:49:58.603Z,91.47
2018-04-12T23:52:32.178Z,92.40
2018-04-12T23:55:07.267Z,87.27
2018-04-12T23:57:41.198Z,89.30
